Orbital elements of EXPRESS-AM5
| Launched | 25 December 2013 |
| Flight ended | – |
| Launch site | Tyuratam Missile and Space Center, Kazakhstan (Also known as Baikonur Cosmodrome) |
| Owner | Commonwealth of Independent States (former USSR) |
| NORAD ID | 39487 |
| Date fetched |
Epoch osculation |
Inc. [°] |
Ecc. | RA asc node [hr] |
Arg Peri. [°] |
Mean anom [°] |
Mean motion [rev/day] |
Abs. mag |
| Date fetched |
Epoch osculation |
Inc. [°] |
Ecc. | RA asc node [hr] |
Arg Peri. [°] |
Mean anom [°] |
Mean motion [rev/day] |
Abs. mag |
| 2026 May 04 17:57 | 2026 May 04 13:53:31 | 0.0147 | 0.00014 | 17.9648 | 45.3674 | 256.0510 | 1.00273 | – |
| 2026 May 03 17:57 | 2026 May 03 12:13:20 | 0.0144 | 0.00013 | 17.7968 | 50.7957 | 256.0510 | 1.00273 | – |
| 2026 May 02 17:57 | 2026 May 02 08:56:42 | 0.0149 | 0.00014 | 17.8753 | 48.1801 | 256.0510 | 1.00273 | – |
| 2026 May 01 17:56 | 2026 May 01 14:01:14 | 0.0143 | 0.00014 | 17.7607 | 49.1530 | 256.0510 | 1.00273 | – |
| 2026 Apr 30 17:56 | 2026 Apr 30 12:21:03 | 0.0153 | 0.00016 | 17.5017 | 49.0683 | 256.0510 | 1.00273 | – |
| 2026 Apr 29 17:57 | 2026 Apr 29 14:06:15 | 0.0171 | 0.00015 | 17.3886 | 53.7155 | 256.0510 | 1.00273 | – |
| 2026 Apr 28 17:56 | 2026 Apr 28 10:43:27 | 0.0213 | 0.00015 | 16.9866 | 57.5111 | 256.0510 | 1.00273 | – |
| 2026 Apr 27 17:58 | 2026 Apr 27 12:58:06 | 0.0200 | 0.00016 | 16.9236 | 56.6907 | 256.0510 | 1.00273 | – |
| 2026 Apr 26 17:58 | 2026 Apr 25 22:49:55 | 0.0174 | 0.00017 | 16.5393 | 63.6367 | 256.0510 | 1.00273 | – |
| 2026 Apr 25 17:58 | 2026 Apr 24 07:28:28 | 0.0184 | 0.00017 | 16.3043 | 70.7374 | 256.0510 | 1.00273 | – |
| 2026 Apr 24 17:59 | 2026 Apr 24 07:28:28 | 0.0184 | 0.00017 | 16.3043 | 70.7374 | 256.0510 | 1.00273 | – |
| 2026 Apr 23 17:57 | 2026 Apr 23 07:31:01 | 0.0178 | 0.00018 | 16.1769 | 64.3816 | 256.0510 | 1.00273 | – |
| 2026 Apr 22 17:57 | 2026 Apr 21 23:00:10 | 0.0166 | 0.00011 | 16.1362 | 68.6245 | 256.0510 | 1.00273 | – |
| 2026 Apr 21 17:57 | 2026 Apr 20 17:57:38 | 0.0158 | 0.00016 | 16.3339 | 65.6320 | 256.0510 | 1.00273 | – |
| 2026 Apr 20 17:57 | 2026 Apr 20 13:48:12 | 0.0161 | 0.00016 | 16.2943 | 66.0764 | 256.0510 | 1.00273 | – |
| 2026 Apr 19 17:58 | 2026 Apr 18 19:42:29 | 0.0133 | 0.00016 | 16.4783 | 65.7612 | 256.0510 | 1.00273 | – |
| 2026 Apr 18 17:56 | 2026 Apr 17 11:11:38 | 0.0146 | 0.00015 | 16.3803 | 71.1726 | 256.0510 | 1.00273 | – |
| 2026 Apr 16 17:57 | 2026 Apr 16 06:06:12 | 0.0162 | 0.00013 | 16.2530 | 83.1456 | 256.0510 | 1.00273 | – |
| 2026 Apr 14 17:57 | 2026 Apr 14 06:11:25 | 0.0156 | 0.00013 | 16.1824 | 84.3903 | 256.0510 | 1.00273 | – |
| 2026 Apr 13 17:57 | 2026 Apr 13 06:13:55 | 0.0129 | 0.00013 | 16.5140 | 80.8341 | 256.0510 | 1.00273 | – |
| 2026 Apr 12 17:57 | 2026 Apr 12 14:49:49 | 0.0149 | 0.00013 | 16.6289 | 78.8824 | 256.0510 | 1.00273 | – |
| 2026 Apr 11 17:57 | 2026 Apr 10 23:28:19 | 0.0129 | 0.00015 | 16.4388 | 78.4629 | 256.0510 | 1.00273 | – |
| 2026 Apr 10 17:58 | 2026 Apr 10 06:21:34 | 0.0140 | 0.00015 | 15.9666 | 84.5315 | 256.0510 | 1.00273 | – |
| 2026 Apr 09 18:01 | 2026 Apr 09 15:16:18 | 0.0138 | 0.00015 | 16.0514 | 87.8658 | 256.0510 | 1.00273 | – |
| 2026 Apr 08 17:57 | 2026 Apr 06 21:55:34 | 0.0147 | 0.00019 | 15.4078 | 90.6314 | 256.0510 | 1.00273 | – |
| 2026 Apr 07 17:57 | 2026 Apr 06 21:55:34 | 0.0147 | 0.00019 | 15.4078 | 90.6314 | 256.0510 | 1.00273 | – |